EKBI/BLL METAR and TAF weather

Enter ICAO airport designator
Station Type Date Time Source
EKBI METAR 2021/09/28 16:20 UTC NOAA

EKBI 281620Z AUTO 18003KT 9999 FEW040/// FEW072/// 16/10 Q1021


Station Type Date Time Source
EKBI Decoded METAR 2021/09/28 16:20 UTC NOAA

Billund Lufthavn, Denmark (EKBI) 55-44N 009-10E 79M
Sep 28, 2021 - 12:20 PM EDT / 2021.09.28 1620 UTC
Wind: from the S (180 degrees) at 3 MPH (3 KT):0
Visibility: greater than 7 mile(s):0
Sky conditions: mostly clear
Temperature: 60 F (16 C)
Dew Point: 50 F (10 C)
Relative Humidity: 67%
Pressure (altimeter): 30.15 in. Hg (1021 hPa)
ob: EKBI 281620Z AUTO 18003KT 9999 FEW040/// FEW072/// 16/10 Q1021
cycle: 16

Station Type Date Time Source
EKBI TAF 2021/09/28 12:31 UTC NOAA

TAF EKBI 281102Z 2812/2912 16008KT 9999 SCT030
TEMPO 2812/2818 SCT030TCU
TEMPO 2821/2907 4000 BR

Example: see airport list